sensor_id;sensor_type;location;lat;lon;timestamp;P1;durP1;ratioP1;P2;durP2;ratioP2
54261;SDS011;40174;52.364;6.452;2024-01-30T00:02:11;12.00;;;5.45;;
54261;SDS011;40174;52.364;6.452;2024-01-30T00:04:38;13.38;;;5.18;;
54261;SDS011;40174;52.364;6.452;2024-01-30T00:07:06;14.82;;;5.13;;
54261;SDS011;40174;52.364;6.452;2024-01-30T00:09:33;8.95;;;4.72;;
54261;SDS011;40174;52.364;6.452;2024-01-30T00:11:59;13.00;;;5.72;;
54261;SDS011;40174;52.364;6.452;2024-01-30T00:14:26;15.52;;;4.90;;
54261;SDS011;40174;52.364;6.452;2024-01-30T00:16:52;14.27;;;5.63;;
54261;SDS011;40174;52.364;6.452;2024-01-30T00:19:19;13.02;;;5.22;;
54261;SDS011;40174;52.364;6.452;2024-01-30T00:21:46;13.38;;;4.82;;
54261;SDS011;40174;52.364;6.452;2024-01-30T00:24:14;17.55;;;5.63;;
54261;SDS011;40174;52.364;6.452;2024-01-30T00:26:41;16.45;;;5.20;;
54261;SDS011;40174;52.364;6.452;2024-01-30T00:29:07;15.90;;;5.90;;
54261;SDS011;40174;52.364;6.452;2024-01-30T00:31:34;13.52;;;5.15;;
54261;SDS011;40174;52.364;6.452;2024-01-30T00:34:01;13.77;;;5.95;;
54261;SDS011;40174;52.364;6.452;2024-01-30T00:36:27;11.93;;;4.97;;
54261;SDS011;40174;52.364;6.452;2024-01-30T00:38:55;12.15;;;4.97;;
54261;SDS011;40174;52.364;6.452;2024-01-30T00:41:23;13.15;;;5.63;;
54261;SDS011;40174;52.364;6.452;2024-01-30T00:43:49;13.15;;;4.32;;
54261;SDS011;40174;52.364;6.452;2024-01-30T00:46:16;10.70;;;4.45;;
54261;SDS011;40174;52.364;6.452;2024-01-30T00:48:43;12.10;;;5.20;;
54261;SDS011;40174;52.364;6.452;2024-01-30T00:51:09;10.38;;;4.55;;
54261;SDS011;40174;52.364;6.452;2024-01-30T00:53:36;11.90;;;4.65;;
54261;SDS011;40174;52.364;6.452;2024-01-30T00:56:03;15.65;;;5.72;;
54261;SDS011;40174;52.364;6.452;2024-01-30T00:58:31;8.45;;;3.63;;
54261;SDS011;40174;52.364;6.452;2024-01-30T01:00:57;10.80;;;4.47;;
54261;SDS011;40174;52.364;6.452;2024-01-30T01:03:24;10.90;;;4.45;;
54261;SDS011;40174;52.364;6.452;2024-01-30T01:05:51;19.58;;;5.40;;
54261;SDS011;40174;52.364;6.452;2024-01-30T01:08:17;12.75;;;5.50;;
54261;SDS011;40174;52.364;6.452;2024-01-30T01:10:45;10.15;;;4.10;;
54261;SDS011;40174;52.364;6.452;2024-01-30T01:13:12;9.68;;;4.70;;
54261;SDS011;40174;52.364;6.452;2024-01-30T01:15:40;11.98;;;4.78;;
54261;SDS011;40174;52.364;6.452;2024-01-30T01:18:06;14.50;;;4.65;;
54261;SDS011;40174;52.364;6.452;2024-01-30T01:20:33;16.48;;;5.47;;
54261;SDS011;40174;52.364;6.452;2024-01-30T01:23:00;11.23;;;4.80;;
54261;SDS011;40174;52.364;6.452;2024-01-30T01:25:26;11.10;;;5.15;;
54261;SDS011;40174;52.364;6.452;2024-01-30T01:27:53;14.93;;;5.57;;
54261;SDS011;40174;52.364;6.452;2024-01-30T01:30:19;10.10;;;4.35;;
54261;SDS011;40174;52.364;6.452;2024-01-30T01:32:49;12.68;;;4.53;;
54261;SDS011;40174;52.364;6.452;2024-01-30T01:35:20;14.63;;;5.43;;
54261;SDS011;40174;52.364;6.452;2024-01-30T01:37:47;11.70;;;5.03;;
54261;SDS011;40174;52.364;6.452;2024-01-30T01:40:19;11.68;;;4.55;;
54261;SDS011;40174;52.364;6.452;2024-01-30T01:42:47;15.23;;;5.38;;
54261;SDS011;40174;52.364;6.452;2024-01-30T01:45:14;12.73;;;6.03;;
54261;SDS011;40174;52.364;6.452;2024-01-30T01:47:40;15.18;;;5.72;;
54261;SDS011;40174;52.364;6.452;2024-01-30T01:50:09;9.23;;;5.05;;
54261;SDS011;40174;52.364;6.452;2024-01-30T01:52:35;13.50;;;4.78;;
54261;SDS011;40174;52.364;6.452;2024-01-30T01:55:03;13.77;;;5.63;;
54261;SDS011;40174;52.364;6.452;2024-01-30T01:57:31;12.43;;;5.65;;
54261;SDS011;40174;52.364;6.452;2024-01-30T01:59:59;9.63;;;4.82;;
54261;SDS011;40174;52.364;6.452;2024-01-30T02:02:26;12.70;;;4.82;;
54261;SDS011;40174;52.364;6.452;2024-01-30T02:04:56;13.73;;;5.15;;
54261;SDS011;40174;52.364;6.452;2024-01-30T02:07:24;17.70;;;5.22;;
54261;SDS011;40174;52.364;6.452;2024-01-30T02:09:51;10.85;;;3.95;;
54261;SDS011;40174;52.364;6.452;2024-01-30T02:12:18;13.02;;;5.65;;
54261;SDS011;40174;52.364;6.452;2024-01-30T02:14:44;10.85;;;4.88;;
54261;SDS011;40174;52.364;6.452;2024-01-30T02:17:11;12.55;;;4.60;;
54261;SDS011;40174;52.364;6.452;2024-01-30T02:19:38;12.27;;;4.25;;
54261;SDS011;40174;52.364;6.452;2024-01-30T02:22:06;9.98;;;4.97;;
54261;SDS011;40174;52.364;6.452;2024-01-30T02:24:33;17.15;;;5.53;;
54261;SDS011;40174;52.364;6.452;2024-01-30T02:27:00;16.38;;;4.97;;
54261;SDS011;40174;52.364;6.452;2024-01-30T02:29:27;11.57;;;4.93;;
54261;SDS011;40174;52.364;6.452;2024-01-30T02:31:53;11.15;;;5.70;;
54261;SDS011;40174;52.364;6.452;2024-01-30T02:34:20;11.70;;;5.10;;
54261;SDS011;40174;52.364;6.452;2024-01-30T02:36:46;11.95;;;4.93;;
54261;SDS011;40174;52.364;6.452;2024-01-30T02:39:14;17.70;;;6.65;;
54261;SDS011;40174;52.364;6.452;2024-01-30T02:41:41;11.82;;;5.25;;
54261;SDS011;40174;52.364;6.452;2024-01-30T02:44:08;14.60;;;5.57;;
54261;SDS011;40174;52.364;6.452;2024-01-30T02:46:34;11.15;;;5.03;;
54261;SDS011;40174;52.364;6.452;2024-01-30T02:49:01;13.85;;;5.80;;
54261;SDS011;40174;52.364;6.452;2024-01-30T02:51:28;13.00;;;4.85;;
54261;SDS011;40174;52.364;6.452;2024-01-30T02:53:54;12.02;;;4.95;;
54261;SDS011;40174;52.364;6.452;2024-01-30T02:56:22;13.07;;;5.57;;
54261;SDS011;40174;52.364;6.452;2024-01-30T02:58:49;13.00;;;5.95;;
54261;SDS011;40174;52.364;6.452;2024-01-30T03:01:15;13.05;;;4.72;;
54261;SDS011;40174;52.364;6.452;2024-01-30T03:03:42;12.07;;;5.05;;
54261;SDS011;40174;52.364;6.452;2024-01-30T03:06:09;10.45;;;4.75;;
54261;SDS011;40174;52.364;6.452;2024-01-30T03:08:35;12.43;;;5.25;;
54261;SDS011;40174;52.364;6.452;2024-01-30T03:11:03;11.00;;;4.97;;
54261;SDS011;40174;52.364;6.452;2024-01-30T03:13:31;11.43;;;4.75;;
54261;SDS011;40174;52.364;6.452;2024-01-30T03:15:57;12.27;;;4.85;;
54261;SDS011;40174;52.364;6.452;2024-01-30T03:18:24;10.60;;;4.57;;
54261;SDS011;40174;52.364;6.452;2024-01-30T03:20:51;11.45;;;4.60;;
54261;SDS011;40174;52.364;6.452;2024-01-30T03:23:17;13.30;;;5.35;;
54261;SDS011;40174;52.364;6.452;2024-01-30T03:25:44;12.88;;;5.32;;
54261;SDS011;40174;52.364;6.452;2024-01-30T03:28:11;13.57;;;5.05;;
54261;SDS011;40174;52.364;6.452;2024-01-30T03:30:38;13.65;;;5.88;;
54261;SDS011;40174;52.364;6.452;2024-01-30T03:33:05;15.30;;;4.88;;
54261;SDS011;40174;52.364;6.452;2024-01-30T03:35:32;12.07;;;5.65;;
54261;SDS011;40174;52.364;6.452;2024-01-30T03:37:58;14.40;;;5.00;;
54261;SDS011;40174;52.364;6.452;2024-01-30T03:40:25;11.98;;;4.47;;
54261;SDS011;40174;52.364;6.452;2024-01-30T03:42:51;8.40;;;4.30;;
54261;SDS011;40174;52.364;6.452;2024-01-30T03:45:18;12.65;;;4.97;;
54261;SDS011;40174;52.364;6.452;2024-01-30T03:47:46;10.20;;;4.72;;
54261;SDS011;40174;52.364;6.452;2024-01-30T03:50:13;9.98;;;3.80;;
54261;SDS011;40174;52.364;6.452;2024-01-30T03:52:40;15.15;;;4.70;;
54261;SDS011;40174;52.364;6.452;2024-01-30T03:55:07;8.82;;;4.32;;
54261;SDS011;40174;52.364;6.452;2024-01-30T03:57:34;13.02;;;4.90;;
54261;SDS011;40174;52.364;6.452;2024-01-30T04:00:00;12.20;;;5.30;;
54261;SDS011;40174;52.364;6.452;2024-01-30T04:02:37;11.43;;;5.10;;
54261;SDS011;40174;52.364;6.452;2024-01-30T04:05:05;15.77;;;5.20;;
54261;SDS011;40174;52.364;6.452;2024-01-30T04:07:32;9.32;;;4.57;;
54261;SDS011;40174;52.364;6.452;2024-01-30T04:09:59;12.52;;;4.75;;
54261;SDS011;40174;52.364;6.452;2024-01-30T04:12:26;14.35;;;5.15;;
54261;SDS011;40174;52.364;6.452;2024-01-30T04:14:52;16.33;;;5.03;;
54261;SDS011;40174;52.364;6.452;2024-01-30T04:17:19;13.82;;;5.15;;
54261;SDS011;40174;52.364;6.452;2024-01-30T04:19:45;8.90;;;4.40;;
54261;SDS011;40174;52.364;6.452;2024-01-30T04:22:13;10.98;;;4.68;;
54261;SDS011;40174;52.364;6.452;2024-01-30T04:24:40;15.80;;;5.10;;
54261;SDS011;40174;52.364;6.452;2024-01-30T04:27:08;11.35;;;4.82;;
54261;SDS011;40174;52.364;6.452;2024-01-30T04:29:34;17.33;;;5.15;;
54261;SDS011;40174;52.364;6.452;2024-01-30T04:32:01;12.73;;;5.63;;
54261;SDS011;40174;52.364;6.452;2024-01-30T04:34:27;13.48;;;5.32;;
54261;SDS011;40174;52.364;6.452;2024-01-30T04:36:54;14.77;;;5.68;;
54261;SDS011;40174;52.364;6.452;2024-01-30T04:39:22;11.00;;;5.18;;
54261;SDS011;40174;52.364;6.452;2024-01-30T04:41:49;15.57;;;6.18;;
54261;SDS011;40174;52.364;6.452;2024-01-30T04:44:15;10.82;;;5.40;;
54261;SDS011;40174;52.364;6.452;2024-01-30T04:46:42;11.38;;;4.45;;
54261;SDS011;40174;52.364;6.452;2024-01-30T04:49:08;13.60;;;5.45;;
54261;SDS011;40174;52.364;6.452;2024-01-30T04:51:35;17.13;;;5.72;;
54261;SDS011;40174;52.364;6.452;2024-01-30T04:54:02;15.63;;;6.05;;
54261;SDS011;40174;52.364;6.452;2024-01-30T04:56:30;10.98;;;5.63;;
54261;SDS011;40174;52.364;6.452;2024-01-30T04:58:57;11.43;;;4.68;;
54261;SDS011;40174;52.364;6.452;2024-01-30T05:01:23;13.82;;;6.05;;
54261;SDS011;40174;52.364;6.452;2024-01-30T05:03:50;18.60;;;5.85;;
54261;SDS011;40174;52.364;6.452;2024-01-30T05:06:23;20.48;;;5.72;;
54261;SDS011;40174;52.364;6.452;2024-01-30T05:08:50;12.18;;;5.15;;
54261;SDS011;40174;52.364;6.452;2024-01-30T05:11:17;14.80;;;6.03;;
54261;SDS011;40174;52.364;6.452;2024-01-30T05:13:46;12.35;;;5.60;;
54261;SDS011;40174;52.364;6.452;2024-01-30T05:16:13;15.70;;;5.40;;
54261;SDS011;40174;52.364;6.452;2024-01-30T05:18:39;14.57;;;5.53;;
54261;SDS011;40174;52.364;6.452;2024-01-30T05:21:06;14.27;;;5.82;;
54261;SDS011;40174;52.364;6.452;2024-01-30T05:23:32;14.77;;;5.38;;
54261;SDS011;40174;52.364;6.452;2024-01-30T05:25:59;16.58;;;5.38;;
54261;SDS011;40174;52.364;6.452;2024-01-30T05:28:26;14.43;;;6.32;;
54261;SDS011;40174;52.364;6.452;2024-01-30T05:30:54;12.25;;;5.45;;
54261;SDS011;40174;52.364;6.452;2024-01-30T05:33:20;15.50;;;6.10;;
54261;SDS011;40174;52.364;6.452;2024-01-30T05:35:47;12.57;;;5.93;;
54261;SDS011;40174;52.364;6.452;2024-01-30T05:38:15;14.60;;;5.55;;
54261;SDS011;40174;52.364;6.452;2024-01-30T05:40:42;14.93;;;5.80;;
54261;SDS011;40174;52.364;6.452;2024-01-30T05:43:09;12.70;;;5.65;;
54261;SDS011;40174;52.364;6.452;2024-01-30T05:45:35;13.13;;;6.03;;
54261;SDS011;40174;52.364;6.452;2024-01-30T05:48:04;11.90;;;5.47;;
54261;SDS011;40174;52.364;6.452;2024-01-30T05:50:31;13.70;;;5.28;;
54261;SDS011;40174;52.364;6.452;2024-01-30T05:52:57;12.68;;;4.65;;
54261;SDS011;40174;52.364;6.452;2024-01-30T05:55:24;13.85;;;5.05;;
54261;SDS011;40174;52.364;6.452;2024-01-30T05:57:51;16.83;;;5.93;;
54261;SDS011;40174;52.364;6.452;2024-01-30T06:00:18;12.95;;;4.72;;
54261;SDS011;40174;52.364;6.452;2024-01-30T06:02:44;14.77;;;5.38;;
54261;SDS011;40174;52.364;6.452;2024-01-30T06:05:12;10.73;;;5.05;;
54261;SDS011;40174;52.364;6.452;2024-01-30T06:07:39;14.73;;;5.15;;
54261;SDS011;40174;52.364;6.452;2024-01-30T06:10:06;10.70;;;5.97;;
54261;SDS011;40174;52.364;6.452;2024-01-30T06:12:34;12.75;;;5.03;;
54261;SDS011;40174;52.364;6.452;2024-01-30T06:15:00;15.32;;;5.25;;
54261;SDS011;40174;52.364;6.452;2024-01-30T06:17:27;15.32;;;5.55;;
54261;SDS011;40174;52.364;6.452;2024-01-30T06:19:54;11.38;;;4.57;;
54261;SDS011;40174;52.364;6.452;2024-01-30T06:22:22;13.82;;;4.88;;
54261;SDS011;40174;52.364;6.452;2024-01-30T06:24:48;17.30;;;6.20;;
54261;SDS011;40174;52.364;6.452;2024-01-30T06:27:15;11.15;;;4.72;;
54261;SDS011;40174;52.364;6.452;2024-01-30T06:29:43;11.15;;;4.95;;
54261;SDS011;40174;52.364;6.452;2024-01-30T06:32:09;9.57;;;4.63;;
54261;SDS011;40174;52.364;6.452;2024-01-30T06:34:36;15.45;;;4.70;;
54261;SDS011;40174;52.364;6.452;2024-01-30T06:37:04;16.70;;;5.07;;
54261;SDS011;40174;52.364;6.452;2024-01-30T06:39:32;13.10;;;5.25;;
54261;SDS011;40174;52.364;6.452;2024-01-30T06:41:58;15.90;;;4.82;;
54261;SDS011;40174;52.364;6.452;2024-01-30T06:44:25;12.02;;;4.88;;
54261;SDS011;40174;52.364;6.452;2024-01-30T06:46:51;14.70;;;5.15;;
54261;SDS011;40174;52.364;6.452;2024-01-30T06:49:18;15.07;;;4.85;;
54261;SDS011;40174;52.364;6.452;2024-01-30T06:51:47;11.57;;;4.18;;
54261;SDS011;40174;52.364;6.452;2024-01-30T06:54:13;11.60;;;4.95;;
54261;SDS011;40174;52.364;6.452;2024-01-30T06:56:41;13.32;;;4.60;;
54261;SDS011;40174;52.364;6.452;2024-01-30T06:59:08;9.35;;;4.88;;
54261;SDS011;40174;52.364;6.452;2024-01-30T07:01:34;13.50;;;6.00;;
54261;SDS011;40174;52.364;6.452;2024-01-30T07:04:01;12.63;;;4.50;;
54261;SDS011;40174;52.364;6.452;2024-01-30T07:06:28;10.77;;;4.38;;
54261;SDS011;40174;52.364;6.452;2024-01-30T07:08:54;12.65;;;4.63;;
54261;SDS011;40174;52.364;6.452;2024-01-30T07:11:21;10.38;;;4.60;;
54261;SDS011;40174;52.364;6.452;2024-01-30T07:13:51;11.15;;;4.63;;
54261;SDS011;40174;52.364;6.452;2024-01-30T07:16:17;9.93;;;4.60;;
54261;SDS011;40174;52.364;6.452;2024-01-30T07:18:44;14.35;;;5.05;;
54261;SDS011;40174;52.364;6.452;2024-01-30T07:21:11;11.20;;;4.88;;
54261;SDS011;40174;52.364;6.452;2024-01-30T07:23:38;10.40;;;4.55;;
54261;SDS011;40174;52.364;6.452;2024-01-30T07:26:04;11.50;;;4.97;;
54261;SDS011;40174;52.364;6.452;2024-01-30T07:28:31;11.45;;;4.55;;
54261;SDS011;40174;52.364;6.452;2024-01-30T07:30:59;10.93;;;4.55;;
54261;SDS011;40174;52.364;6.452;2024-01-30T07:33:26;14.32;;;4.50;;
54261;SDS011;40174;52.364;6.452;2024-01-30T07:35:53;13.73;;;5.13;;
54261;SDS011;40174;52.364;6.452;2024-01-30T07:38:20;11.95;;;4.78;;
54261;SDS011;40174;52.364;6.452;2024-01-30T07:40:46;10.35;;;4.55;;
54261;SDS011;40174;52.364;6.452;2024-01-30T07:43:13;11.15;;;4.13;;
54261;SDS011;40174;52.364;6.452;2024-01-30T07:45:39;9.02;;;4.07;;
54261;SDS011;40174;52.364;6.452;2024-01-30T07:48:07;10.40;;;4.35;;
54261;SDS011;40174;52.364;6.452;2024-01-30T07:50:34;18.40;;;4.72;;
54261;SDS011;40174;52.364;6.452;2024-01-30T07:53:02;10.52;;;4.50;;
54261;SDS011;40174;52.364;6.452;2024-01-30T07:55:29;8.57;;;3.33;;
54261;SDS011;40174;52.364;6.452;2024-01-30T07:57:57;13.80;;;4.20;;
54261;SDS011;40174;52.364;6.452;2024-01-30T08:00:24;12.15;;;4.30;;
54261;SDS011;40174;52.364;6.452;2024-01-30T08:02:53;12.13;;;5.53;;
54261;SDS011;40174;52.364;6.452;2024-01-30T08:05:22;11.18;;;4.30;;
54261;SDS011;40174;52.364;6.452;2024-01-30T08:07:49;11.40;;;4.38;;
54261;SDS011;40174;52.364;6.452;2024-01-30T08:10:16;11.00;;;4.00;;
54261;SDS011;40174;52.364;6.452;2024-01-30T08:12:44;14.52;;;4.90;;
54261;SDS011;40174;52.364;6.452;2024-01-30T08:15:11;14.52;;;4.63;;
54261;SDS011;40174;52.364;6.452;2024-01-30T08:17:38;15.07;;;4.70;;
54261;SDS011;40174;52.364;6.452;2024-01-30T08:20:05;10.73;;;4.32;;
54261;SDS011;40174;52.364;6.452;2024-01-30T08:22:34;10.68;;;4.13;;
54261;SDS011;40174;52.364;6.452;2024-01-30T08:25:01;12.32;;;4.40;;
54261;SDS011;40174;52.364;6.452;2024-01-30T08:27:28;10.45;;;4.00;;
54261;SDS011;40174;52.364;6.452;2024-01-30T08:29:54;9.52;;;4.05;;
54261;SDS011;40174;52.364;6.452;2024-01-30T08:32:21;9.27;;;3.88;;
54261;SDS011;40174;52.364;6.452;2024-01-30T08:34:49;11.70;;;3.55;;
54261;SDS011;40174;52.364;6.452;2024-01-30T08:37:15;12.48;;;4.03;;
54261;SDS011;40174;52.364;6.452;2024-01-30T08:42:12;12.48;;;4.05;;
54261;SDS011;40174;52.364;6.452;2024-01-30T08:44:41;16.42;;;4.85;;
54261;SDS011;40174;52.364;6.452;2024-01-30T08:47:07;12.45;;;4.90;;
54261;SDS011;40174;52.364;6.452;2024-01-30T08:49:34;10.90;;;4.10;;
54261;SDS011;40174;52.364;6.452;2024-01-30T08:52:01;10.52;;;4.20;;
54261;SDS011;40174;52.364;6.452;2024-01-30T08:54:28;8.52;;;4.03;;
54261;SDS011;40174;52.364;6.452;2024-01-30T08:56:56;8.68;;;3.85;;
54261;SDS011;40174;52.364;6.452;2024-01-30T08:59:23;11.27;;;4.05;;
54261;SDS011;40174;52.364;6.452;2024-01-30T09:01:50;11.52;;;4.43;;
54261;SDS011;40174;52.364;6.452;2024-01-30T09:04:18;6.53;;;3.40;;
54261;SDS011;40174;52.364;6.452;2024-01-30T09:06:45;13.00;;;4.30;;
54261;SDS011;40174;52.364;6.452;2024-01-30T09:09:11;11.70;;;4.38;;
54261;SDS011;40174;52.364;6.452;2024-01-30T09:11:39;8.32;;;3.53;;
54261;SDS011;40174;52.364;6.452;2024-01-30T09:14:07;12.70;;;4.15;;
54261;SDS011;40174;52.364;6.452;2024-01-30T09:16:34;9.63;;;3.38;;
54261;SDS011;40174;52.364;6.452;2024-01-30T09:19:01;9.65;;;4.10;;
54261;SDS011;40174;52.364;6.452;2024-01-30T09:21:27;9.30;;;4.30;;
54261;SDS011;40174;52.364;6.452;2024-01-30T09:23:54;9.13;;;4.18;;
54261;SDS011;40174;52.364;6.452;2024-01-30T09:26:27;14.55;;;4.95;;
54261;SDS011;40174;52.364;6.452;2024-01-30T09:28:54;10.57;;;3.88;;
54261;SDS011;40174;52.364;6.452;2024-01-30T09:31:22;8.15;;;4.07;;
54261;SDS011;40174;52.364;6.452;2024-01-30T09:33:48;19.27;;;4.65;;
54261;SDS011;40174;52.364;6.452;2024-01-30T09:36:16;10.73;;;4.25;;
54261;SDS011;40174;52.364;6.452;2024-01-30T09:38:44;11.63;;;3.88;;
54261;SDS011;40174;52.364;6.452;2024-01-30T09:41:11;8.02;;;4.07;;
54261;SDS011;40174;52.364;6.452;2024-01-30T09:43:38;7.00;;;3.28;;
54261;SDS011;40174;52.364;6.452;2024-01-30T09:46:06;10.18;;;3.90;;
54261;SDS011;40174;52.364;6.452;2024-01-30T09:48:39;8.68;;;4.10;;
54261;SDS011;40174;52.364;6.452;2024-01-30T09:51:07;12.45;;;4.65;;
54261;SDS011;40174;52.364;6.452;2024-01-30T09:53:35;10.65;;;4.30;;
54261;SDS011;40174;52.364;6.452;2024-01-30T09:56:03;8.43;;;3.38;;
54261;SDS011;40174;52.364;6.452;2024-01-30T09:58:31;9.45;;;4.32;;
54261;SDS011;40174;52.364;6.452;2024-01-30T10:00:58;12.32;;;4.85;;
54261;SDS011;40174;52.364;6.452;2024-01-30T10:03:24;10.23;;;3.67;;
54261;SDS011;40174;52.364;6.452;2024-01-30T10:05:53;11.00;;;3.92;;
54261;SDS011;40174;52.364;6.452;2024-01-30T10:08:22;8.32;;;3.78;;
54261;SDS011;40174;52.364;6.452;2024-01-30T10:10:48;11.38;;;4.20;;
54261;SDS011;40174;52.364;6.452;2024-01-30T10:13:16;15.23;;;4.28;;
54261;SDS011;40174;52.364;6.452;2024-01-30T10:15:43;8.65;;;3.88;;
54261;SDS011;40174;52.364;6.452;2024-01-30T10:18:11;15.15;;;4.00;;
54261;SDS011;40174;52.364;6.452;2024-01-30T10:20:38;15.68;;;3.65;;
54261;SDS011;40174;52.364;6.452;2024-01-30T10:23:06;12.50;;;3.40;;
54261;SDS011;40174;52.364;6.452;2024-01-30T10:25:33;8.95;;;3.60;;
54261;SDS011;40174;52.364;6.452;2024-01-30T10:27:59;8.30;;;3.40;;
54261;SDS011;40174;52.364;6.452;2024-01-30T10:30:25;11.00;;;4.28;;
54261;SDS011;40174;52.364;6.452;2024-01-30T10:32:53;9.23;;;3.63;;
54261;SDS011;40174;52.364;6.452;2024-01-30T10:35:19;9.63;;;4.47;;
54261;SDS011;40174;52.364;6.452;2024-01-30T10:37:47;10.48;;;4.22;;
54261;SDS011;40174;52.364;6.452;2024-01-30T10:40:15;12.77;;;4.22;;
54261;SDS011;40174;52.364;6.452;2024-01-30T10:42:42;10.27;;;4.20;;
54261;SDS011;40174;52.364;6.452;2024-01-30T10:45:10;12.30;;;4.45;;
54261;SDS011;40174;52.364;6.452;2024-01-30T10:47:39;11.25;;;4.38;;
54261;SDS011;40174;52.364;6.452;2024-01-30T10:50:07;8.82;;;3.42;;
54261;SDS011;40174;52.364;6.452;2024-01-30T10:52:35;9.93;;;4.00;;
54261;SDS011;40174;52.364;6.452;2024-01-30T10:55:04;11.55;;;4.30;;
54261;SDS011;40174;52.364;6.452;2024-01-30T10:57:32;9.80;;;4.30;;
54261;SDS011;40174;52.364;6.452;2024-01-30T11:00:02;14.80;;;4.65;;
54261;SDS011;40174;52.364;6.452;2024-01-30T11:02:35;12.82;;;4.53;;
54261;SDS011;40174;52.364;6.452;2024-01-30T11:05:04;12.63;;;4.20;;
54261;SDS011;40174;52.364;6.452;2024-01-30T11:07:31;9.93;;;3.80;;
54261;SDS011;40174;52.364;6.452;2024-01-30T11:10:01;10.00;;;4.00;;
54261;SDS011;40174;52.364;6.452;2024-01-30T11:12:29;9.93;;;4.07;;
54261;SDS011;40174;52.364;6.452;2024-01-30T11:15:03;11.10;;;4.00;;
54261;SDS011;40174;52.364;6.452;2024-01-30T11:17:45;11.82;;;4.97;;
54261;SDS011;40174;52.364;6.452;2024-01-30T11:20:16;11.85;;;3.92;;
54261;SDS011;40174;52.364;6.452;2024-01-30T11:22:45;14.65;;;4.47;;
54261;SDS011;40174;52.364;6.452;2024-01-30T11:25:13;8.85;;;3.58;;
54261;SDS011;40174;52.364;6.452;2024-01-30T11:27:41;10.75;;;4.38;;
54261;SDS011;40174;52.364;6.452;2024-01-30T11:30:09;11.85;;;4.82;;
54261;SDS011;40174;52.364;6.452;2024-01-30T11:32:36;15.60;;;4.13;;
54261;SDS011;40174;52.364;6.452;2024-01-30T11:35:03;13.73;;;3.88;;
54261;SDS011;40174;52.364;6.452;2024-01-30T11:37:32;8.52;;;3.38;;
54261;SDS011;40174;52.364;6.452;2024-01-30T11:40:04;8.75;;;3.42;;
54261;SDS011;40174;52.364;6.452;2024-01-30T11:42:31;11.05;;;3.50;;
54261;SDS011;40174;52.364;6.452;2024-01-30T11:44:59;8.85;;;3.63;;
54261;SDS011;40174;52.364;6.452;2024-01-30T11:47:28;12.55;;;3.40;;
54261;SDS011;40174;52.364;6.452;2024-01-30T11:49:56;11.85;;;3.85;;
54261;SDS011;40174;52.364;6.452;2024-01-30T11:52:23;10.35;;;3.80;;
54261;SDS011;40174;52.364;6.452;2024-01-30T11:54:50;23.30;;;4.35;;
54261;SDS011;40174;52.364;6.452;2024-01-30T11:57:19;9.23;;;3.75;;
54261;SDS011;40174;52.364;6.452;2024-01-30T11:59:46;7.93;;;3.67;;
54261;SDS011;40174;52.364;6.452;2024-01-30T12:02:15;7.28;;;3.03;;
54261;SDS011;40174;52.364;6.452;2024-01-30T12:04:44;11.45;;;3.42;;
54261;SDS011;40174;52.364;6.452;2024-01-30T12:07:10;8.27;;;3.13;;
54261;SDS011;40174;52.364;6.452;2024-01-30T12:09:37;7.97;;;3.30;;
54261;SDS011;40174;52.364;6.452;2024-01-30T12:12:04;9.63;;;3.05;;
54261;SDS011;40174;52.364;6.452;2024-01-30T12:14:37;6.72;;;2.92;;
54261;SDS011;40174;52.364;6.452;2024-01-30T12:17:05;12.60;;;3.38;;
54261;SDS011;40174;52.364;6.452;2024-01-30T12:19:33;8.18;;;3.22;;
54261;SDS011;40174;52.364;6.452;2024-01-30T12:22:02;10.65;;;3.22;;
54261;SDS011;40174;52.364;6.452;2024-01-30T12:24:30;8.48;;;3.50;;
54261;SDS011;40174;52.364;6.452;2024-01-30T12:26:57;7.30;;;2.88;;
54261;SDS011;40174;52.364;6.452;2024-01-30T12:29:24;10.60;;;2.80;;
54261;SDS011;40174;52.364;6.452;2024-01-30T12:31:52;14.70;;;2.72;;
54261;SDS011;40174;52.364;6.452;2024-01-30T12:34:19;10.45;;;3.20;;
54261;SDS011;40174;52.364;6.452;2024-01-30T12:36:46;10.95;;;3.17;;
54261;SDS011;40174;52.364;6.452;2024-01-30T12:39:15;9.40;;;2.92;;
54261;SDS011;40174;52.364;6.452;2024-01-30T12:41:41;5.45;;;2.75;;
54261;SDS011;40174;52.364;6.452;2024-01-30T12:44:08;11.77;;;2.83;;
54261;SDS011;40174;52.364;6.452;2024-01-30T12:46:35;6.53;;;2.15;;
54261;SDS011;40174;52.364;6.452;2024-01-30T12:49:01;7.45;;;2.13;;
54261;SDS011;40174;52.364;6.452;2024-01-30T12:51:28;8.93;;;2.72;;
54261;SDS011;40174;52.364;6.452;2024-01-30T12:53:55;7.53;;;1.98;;
54261;SDS011;40174;52.364;6.452;2024-01-30T12:56:23;8.80;;;2.45;;
54261;SDS011;40174;52.364;6.452;2024-01-30T12:58:50;7.85;;;2.65;;
54261;SDS011;40174;52.364;6.452;2024-01-30T13:01:17;5.35;;;2.10;;
54261;SDS011;40174;52.364;6.452;2024-01-30T13:03:44;5.03;;;2.53;;
54261;SDS011;40174;52.364;6.452;2024-01-30T13:06:11;6.05;;;2.50;;
54261;SDS011;40174;52.364;6.452;2024-01-30T13:08:37;3.63;;;1.88;;
54261;SDS011;40174;52.364;6.452;2024-01-30T13:11:04;6.15;;;2.08;;
54261;SDS011;40174;52.364;6.452;2024-01-30T13:13:32;8.20;;;2.35;;
54261;SDS011;40174;52.364;6.452;2024-01-30T13:16:05;6.68;;;2.28;;
54261;SDS011;40174;52.364;6.452;2024-01-30T13:18:32;5.70;;;1.70;;
54261;SDS011;40174;52.364;6.452;2024-01-30T13:20:59;7.60;;;2.00;;
54261;SDS011;40174;52.364;6.452;2024-01-30T13:23:25;11.60;;;2.60;;
54261;SDS011;40174;52.364;6.452;2024-01-30T13:25:52;5.18;;;2.17;;
54261;SDS011;40174;52.364;6.452;2024-01-30T13:28:25;7.65;;;2.25;;
54261;SDS011;40174;52.364;6.452;2024-01-30T13:30:53;4.82;;;1.45;;
54261;SDS011;40174;52.364;6.452;2024-01-30T13:33:21;3.88;;;1.50;;
54261;SDS011;40174;52.364;6.452;2024-01-30T13:35:48;4.40;;;1.45;;
54261;SDS011;40174;52.364;6.452;2024-01-30T13:38:14;6.78;;;1.63;;
54261;SDS011;40174;52.364;6.452;2024-01-30T13:40:41;3.13;;;1.50;;
54261;SDS011;40174;52.364;6.452;2024-01-30T13:43:08;3.50;;;1.08;;
54261;SDS011;40174;52.364;6.452;2024-01-30T13:45:34;3.15;;;1.17;;
54261;SDS011;40174;52.364;6.452;2024-01-30T13:48:04;5.25;;;1.50;;
54261;SDS011;40174;52.364;6.452;2024-01-30T13:50:33;2.80;;;1.30;;
54261;SDS011;40174;52.364;6.452;2024-01-30T13:52:59;4.00;;;1.23;;
54261;SDS011;40174;52.364;6.452;2024-01-30T13:55:28;3.63;;;1.30;;
54261;SDS011;40174;52.364;6.452;2024-01-30T13:57:55;3.13;;;1.02;;
54261;SDS011;40174;52.364;6.452;2024-01-30T14:00:22;4.68;;;1.15;;
54261;SDS011;40174;52.364;6.452;2024-01-30T14:02:50;4.43;;;1.27;;
54261;SDS011;40174;52.364;6.452;2024-01-30T14:05:21;3.15;;;1.50;;
54261;SDS011;40174;52.364;6.452;2024-01-30T14:07:47;3.55;;;1.45;;
54261;SDS011;40174;52.364;6.452;2024-01-30T14:10:15;3.17;;;1.15;;
54261;SDS011;40174;52.364;6.452;2024-01-30T14:12:41;3.67;;;1.27;;
54261;SDS011;40174;52.364;6.452;2024-01-30T14:15:09;8.00;;;1.23;;
54261;SDS011;40174;52.364;6.452;2024-01-30T14:17:37;3.13;;;1.70;;
54261;SDS011;40174;52.364;6.452;2024-01-30T14:20:05;3.00;;;1.35;;
54261;SDS011;40174;52.364;6.452;2024-01-30T14:22:37;2.97;;;1.15;;
54261;SDS011;40174;52.364;6.452;2024-01-30T14:25:04;3.35;;;1.35;;
54261;SDS011;40174;52.364;6.452;2024-01-30T14:27:31;6.03;;;2.05;;
54261;SDS011;40174;52.364;6.452;2024-01-30T14:29:58;3.45;;;1.70;;
54261;SDS011;40174;52.364;6.452;2024-01-30T14:32:24;3.75;;;1.63;;
54261;SDS011;40174;52.364;6.452;2024-01-30T14:34:51;3.85;;;1.58;;
54261;SDS011;40174;52.364;6.452;2024-01-30T14:37:18;5.47;;;1.85;;
54261;SDS011;40174;52.364;6.452;2024-01-30T14:39:48;5.13;;;2.03;;
54261;SDS011;40174;52.364;6.452;2024-01-30T14:42:14;2.75;;;1.25;;